Terminal Aerodrome Forecast
Issued by NWS Pendleton, OR

Home | Current Version | Previous Version | Text Only | Print | Product List | Glossary On
Versions: 1 2 3 4 5 6 7 8 9 10 11 12 13 14 15 16 17
000
FTUS46 KPDT 240500
TAFPDT
TAF
KPDT 240520Z 2406/2506 VRB03KT P6SM FEW060 SCT080 OVC120
     FM241500 11004KT P6SM BKN080 OVC100
     FM242100 03007KT P6SM -SHRA BKN060 OVC080
     FM250200 VRB05KT P6SM -SHRA OVC050=

USA.gov is the U.S. government's official web portal to all federal, state and local government web resources and services.